createdAt,value
2022-10-05T00:00:25.983Z,99814.91
2022-10-05T00:01:34.509Z,99808.63
2022-10-05T00:02:36.737Z,99813.88
2022-10-05T00:03:40.323Z,99799.81
2022-10-05T00:04:42.599Z,99815.50
2022-10-05T00:05:45.983Z,99813.66
2022-10-05T00:06:57.929Z,99811.88
2022-10-05T00:08:21.999Z,99811.13
2022-10-05T00:09:24.188Z,99815.44
2022-10-05T00:10:26.441Z,99807.59
2022-10-05T00:11:28.614Z,99804.97
2022-10-05T00:12:30.813Z,99807.59
2022-10-05T00:13:33.452Z,99804.06
2022-10-05T00:14:36.720Z,99803.97
2022-10-05T00:15:38.888Z,99784.06
2022-10-05T00:16:41.084Z,99793.63
2022-10-05T00:17:43.559Z,99799.91
2022-10-05T00:18:49.931Z,99803.41
2022-10-05T00:19:53.825Z,99800.78
2022-10-05T00:20:56.806Z,99805.97
2022-10-05T00:22:13.257Z,99808.53
2022-10-05T00:23:22.952Z,99798.94
2022-10-05T00:24:25.207Z,99802.50
2022-10-05T00:25:27.378Z,99803.25
2022-10-05T00:26:33.120Z,99802.53
2022-10-05T00:27:37.892Z,99805.13
2022-10-05T00:28:40.959Z,99801.63
2022-10-05T00:29:43.345Z,99802.53
2022-10-05T00:30:45.595Z,99811.19
2022-10-05T00:31:49.473Z,99796.38
2022-10-05T00:32:56.023Z,99804.91
2022-10-05T00:34:00.976Z,99808.59
2022-10-05T00:35:03.290Z,99807.88
2022-10-05T00:36:07.541Z,99804.38
2022-10-05T00:37:10.213Z,99808.72
2022-10-05T00:38:12.479Z,99803.34
2022-10-05T00:39:14.883Z,99807.75
2022-10-05T00:40:53.444Z,99800.16
2022-10-05T00:42:06.090Z,99804.13
2022-10-05T00:43:29.962Z,99809.47
2022-10-05T00:45:23.995Z,99799.78
2022-10-05T00:46:37.089Z,99810.13
2022-10-05T00:48:03.027Z,99805.72
2022-10-05T00:49:23.497Z,99811.78
2022-10-05T00:50:37.542Z,99816.16
2022-10-05T00:51:43.581Z,99800.50
2022-10-05T00:52:59.495Z,99797.06
2022-10-05T00:54:19.947Z,99800.88
2022-10-05T00:55:43.863Z,99809.94
2022-10-05T00:56:56.608Z,99809.38
2022-10-05T00:58:38.266Z,99809.25
2022-10-05T00:59:55.158Z,99809.16
2022-10-05T01:01:11.262Z,99808.19
2022-10-05T01:03:09.358Z,99809.13
2022-10-05T01:04:35.967Z,99804.53
2022-10-05T01:06:17.214Z,99808.22
2022-10-05T01:07:49.877Z,99802.19
2022-10-05T01:09:12.700Z,99812.28
2022-10-05T01:10:45.604Z,99809.31
2022-10-05T01:12:12.578Z,99801.31
2022-10-05T01:13:44.791Z,99801.06
2022-10-05T01:15:01.998Z,99800.00
2022-10-05T01:16:19.011Z,99798.19
2022-10-05T01:18:06.146Z,99805.25
2022-10-05T01:19:14.090Z,99800.84
2022-10-05T01:20:46.022Z,99798.19
2022-10-05T01:21:57.275Z,99800.78
2022-10-05T01:23:11.160Z,99792.09
2022-10-05T01:24:33.080Z,99798.31
2022-10-05T01:26:07.565Z,99791.50
2022-10-05T01:27:15.457Z,99802.78
2022-10-05T01:28:40.085Z,99794.81
2022-10-05T01:30:10.797Z,99804.66
2022-10-05T01:31:20.565Z,99804.47
2022-10-05T01:32:30.853Z,99798.59
2022-10-05T01:33:46.468Z,99787.72
2022-10-05T01:35:00.900Z,99787.72
2022-10-05T01:36:05.619Z,99787.13
2022-10-05T01:37:21.406Z,99783.53
2022-10-05T01:38:39.960Z,99780.63
2022-10-05T01:39:48.438Z,99777.84
2022-10-05T01:41:02.406Z,99777.03
2022-10-05T01:42:41.531Z,99787.38
2022-10-05T01:43:57.679Z,99778.44
2022-10-05T01:45:55.405Z,99772.28
2022-10-05T01:47:12.727Z,99769.44
2022-10-05T01:48:23.981Z,99760.88
2022-10-05T01:49:55.823Z,99769.97
2022-10-05T01:51:10.590Z,99773.31
2022-10-05T01:52:41.048Z,99775.44
2022-10-05T01:53:52.574Z,99777.00
2022-10-05T01:55:10.510Z,99766.38
2022-10-05T01:56:33.387Z,99767.00
2022-10-05T01:58:08.624Z,99766.06
2022-10-05T01:59:22.713Z,99767.69
2022-10-05T02:00:24.967Z,99765.09
2022-10-05T02:01:35.848Z,99771.09
2022-10-05T02:02:45.947Z,99768.06
2022-10-05T02:03:56.855Z,99767.53
2022-10-05T02:05:05.009Z,99765.88
2022-10-05T02:06:27.518Z,99774.56
2022-10-05T02:07:37.382Z,99762.16
2022-10-05T02:09:04.464Z,99766.38
2022-10-05T02:10:15.160Z,99773.25
2022-10-05T02:11:18.517Z,99770.53
2022-10-05T02:12:24.956Z,99777.84
2022-10-05T02:13:39.476Z,99771.28
2022-10-05T02:14:44.394Z,99777.72
2022-10-05T02:16:11.231Z,99772.31
2022-10-05T02:17:25.874Z,99766.78
2022-10-05T02:18:41.838Z,99766.31
2022-10-05T02:19:48.650Z,99783.56
2022-10-05T02:20:55.649Z,99778.09
2022-10-05T02:22:08.716Z,99779.66
2022-10-05T02:23:25.700Z,99770.09
2022-10-05T02:24:39.353Z,99776.97
2022-10-05T02:25:46.806Z,99769.91
2022-10-05T02:26:52.722Z,99769.91
2022-10-05T02:28:03.901Z,99783.34
2022-10-05T02:29:12.459Z,99783.56
2022-10-05T02:30:17.666Z,99780.22
2022-10-05T02:31:40.326Z,99779.09
2022-10-05T02:32:58.205Z,99783.97
2022-10-05T02:34:27.927Z,99784.97
2022-10-05T02:35:37.314Z,99778.97
2022-10-05T02:36:41.046Z,99787.91
2022-10-05T02:38:09.447Z,99780.66
2022-10-05T02:39:40.342Z,99784.31
2022-10-05T02:40:57.275Z,99782.59
2022-10-05T02:42:15.179Z,99784.03
2022-10-05T02:43:50.657Z,99782.09
2022-10-05T02:45:21.409Z,99782.31
2022-10-05T02:46:38.406Z,99773.81
2022-10-05T02:48:16.057Z,99778.16
2022-10-05T02:49:53.692Z,99781.25
2022-10-05T02:51:00.446Z,99778.50
2022-10-05T02:52:28.899Z,99764.84
2022-10-05T02:53:39.226Z,99757.31
2022-10-05T02:54:50.079Z,99761.69
2022-10-05T02:56:01.596Z,99764.41
2022-10-05T02:57:23.072Z,99765.84
2022-10-05T02:58:31.115Z,99760.50
2022-10-05T02:59:57.955Z,99762.19
2022-10-05T03:01:09.236Z,99760.28
2022-10-05T03:02:22.869Z,99758.53
2022-10-05T03:03:39.183Z,99752.41
2022-10-05T03:04:54.068Z,99744.06
2022-10-05T03:06:03.542Z,99751.81
2022-10-05T03:07:29.495Z,99756.00
2022-10-05T03:08:45.874Z,99751.94
2022-10-05T03:10:01.314Z,99750.34
2022-10-05T03:11:11.080Z,99752.75
2022-10-05T03:12:42.780Z,99752.09
2022-10-05T03:14:18.387Z,99737.38
2022-10-05T03:15:36.851Z,99738.59
2022-10-05T03:16:59.385Z,99739.50
2022-10-05T03:18:01.656Z,99734.91
2022-10-05T03:19:07.043Z,99739.66
2022-10-05T03:20:36.523Z,99730.81
2022-10-05T03:22:12.627Z,99729.72
2022-10-05T03:23:53.034Z,99732.38
2022-10-05T03:25:11.883Z,99721.88
2022-10-05T03:26:35.880Z,99723.47
2022-10-05T03:27:51.633Z,99725.31
2022-10-05T03:29:37.928Z,99731.00
2022-10-05T03:31:19.999Z,99723.72
2022-10-05T03:33:02.870Z,99725.31
2022-10-05T03:34:37.549Z,99734.81
2022-10-05T03:35:55.716Z,99728.63
2022-10-05T03:37:10.343Z,99736.41
2022-10-05T03:38:21.445Z,99728.44
2022-10-05T03:39:32.972Z,99731.88
2022-10-05T03:40:43.057Z,99726.75
2022-10-05T03:41:50.195Z,99723.94
2022-10-05T03:43:06.085Z,99722.44
2022-10-05T03:44:36.694Z,99719.69
2022-10-05T03:45:51.738Z,99725.63
2022-10-05T03:47:22.167Z,99728.06
2022-10-05T03:48:44.059Z,99728.75
2022-10-05T03:49:46.181Z,99727.06
2022-10-05T03:51:05.028Z,99724.50
2022-10-05T03:52:16.369Z,99727.38
2022-10-05T03:53:22.875Z,99723.88
2022-10-05T03:54:32.682Z,99727.28
2022-10-05T03:55:40.770Z,99729.91
2022-10-05T03:56:51.991Z,99725.41
2022-10-05T03:58:02.495Z,99724.63
2022-10-05T03:59:18.630Z,99714.13
2022-10-05T04:00:23.532Z,99717.59
2022-10-05T04:01:49.891Z,99716.69
2022-10-05T04:03:05.233Z,99715.94
2022-10-05T04:04:13.972Z,99715.09
2022-10-05T04:05:21.685Z,99715.88
2022-10-05T04:06:30.401Z,99709.63
2022-10-05T04:07:32.517Z,99710.53
2022-10-05T04:08:55.660Z,99714.09
2022-10-05T04:10:03.222Z,99717.41
2022-10-05T04:11:14.377Z,99714.81
2022-10-05T04:12:35.865Z,99720.03
2022-10-05T04:13:46.782Z,99717.44
2022-10-05T04:14:54.792Z,99726.28
2022-10-05T04:16:03.029Z,99720.97
2022-10-05T04:17:11.753Z,99721.88
2022-10-05T04:18:35.934Z,99728.03
2022-10-05T04:20:04.431Z,99721.16
2022-10-05T04:21:13.755Z,99722.00
2022-10-05T04:22:22.845Z,99717.31
2022-10-05T04:24:11.139Z,99724.91
2022-10-05T04:25:31.656Z,99720.41
2022-10-05T04:26:49.158Z,99716.06
2022-10-05T04:28:06.389Z,99718.81
2022-10-05T04:29:26.808Z,99726.88
2022-10-05T04:30:31.198Z,99719.81
2022-10-05T04:32:05.869Z,99720.50
2022-10-05T04:33:15.830Z,99725.06
2022-10-05T04:34:34.499Z,99734.53
2022-10-05T04:36:12.775Z,99727.16
2022-10-05T04:37:23.502Z,99739.56
2022-10-05T04:38:48.686Z,99737.72
2022-10-05T04:40:09.991Z,99740.53
2022-10-05T04:41:34.468Z,99742.84
2022-10-05T04:42:44.943Z,99747.88
2022-10-05T04:44:24.799Z,99738.31
2022-10-05T04:45:53.929Z,99741.84
2022-10-05T04:47:14.509Z,99735.81
2022-10-05T04:48:45.853Z,99742.72
2022-10-05T04:50:28.421Z,99736.19
2022-10-05T04:52:02.941Z,99735.47
2022-10-05T04:53:20.575Z,99740.94
2022-10-05T04:54:54.349Z,99738.50
2022-10-05T04:56:07.183Z,99742.78
2022-10-05T04:57:46.665Z,99751.75
2022-10-05T04:59:53.129Z,99743.06
2022-10-05T05:01:18.942Z,99742.78
2022-10-05T05:03:09.470Z,99742.13
2022-10-05T05:04:51.953Z,99749.16
2022-10-05T05:06:18.738Z,99736.88
2022-10-05T05:07:30.908Z,99737.47
2022-10-05T05:08:46.065Z,99744.38
2022-10-05T05:10:17.285Z,99738.28
2022-10-05T05:11:39.200Z,99742.34
2022-10-05T05:13:03.904Z,99738.09
2022-10-05T05:14:09.009Z,99742.06
2022-10-05T05:15:29.012Z,99749.50
2022-10-05T05:16:41.384Z,99740.63
2022-10-05T05:17:53.196Z,99740.56
2022-10-05T05:19:35.482Z,99738.53
2022-10-05T05:21:02.114Z,99742.75
2022-10-05T05:22:11.637Z,99730.72
2022-10-05T05:23:44.266Z,99743.03
2022-10-05T05:25:06.769Z,99744.84
2022-10-05T05:26:28.154Z,99750.19
2022-10-05T05:27:41.736Z,99744.91
2022-10-05T05:29:22.543Z,99745.88
2022-10-05T05:30:37.237Z,99749.09
2022-10-05T05:31:53.247Z,99746.34
2022-10-05T05:33:18.654Z,99744.44
2022-10-05T05:34:34.326Z,99740.72
2022-10-05T05:35:39.409Z,99745.25
2022-10-05T05:37:00.057Z,99753.09
2022-10-05T05:38:20.999Z,99754.13
2022-10-05T05:39:33.787Z,99749.31
2022-10-05T05:40:46.949Z,99760.72
2022-10-05T05:42:17.064Z,99765.28
2022-10-05T05:43:27.703Z,99758.63
2022-10-05T05:44:47.323Z,99763.16
2022-10-05T05:46:05.789Z,99765.38
2022-10-05T05:47:26.479Z,99766.75
2022-10-05T05:48:39.925Z,99769.34
2022-10-05T05:49:46.633Z,99765.59
2022-10-05T05:50:53.718Z,99774.72
2022-10-05T05:52:19.926Z,99768.56
2022-10-05T05:53:32.185Z,99763.16
2022-10-05T05:54:42.690Z,99769.84
2022-10-05T05:55:49.850Z,99760.63
2022-10-05T05:57:12.643Z,99754.25
2022-10-05T05:58:35.534Z,99768.91
2022-10-05T06:00:05.612Z,99772.44
2022-10-05T06:01:34.220Z,99777.94
2022-10-05T06:02:50.694Z,99779.25
2022-10-05T06:04:09.270Z,99782.31
2022-10-05T06:05:35.764Z,99793.59
2022-10-05T06:06:45.380Z,99782.75
2022-10-05T06:07:49.603Z,99788.66
2022-10-05T06:08:58.297Z,99796.44
2022-10-05T06:10:24.739Z,99798.91
2022-10-05T06:11:43.073Z,99778.22
2022-10-05T06:12:49.035Z,99783.56
2022-10-05T06:13:52.045Z,99781.44
2022-10-05T06:15:28.609Z,99794.28
2022-10-05T06:16:39.890Z,99794.22
2022-10-05T06:17:48.569Z,99795.22
2022-10-05T06:18:56.546Z,99808.34
2022-10-05T06:20:05.462Z,99808.19
2022-10-05T06:21:34.466Z,99815.16
2022-10-05T06:22:40.904Z,99814.66
2022-10-05T06:23:57.454Z,99811.91
2022-10-05T06:25:11.423Z,99806.78
2022-10-05T06:26:20.210Z,99818.88
2022-10-05T06:27:59.819Z,99817.69
2022-10-05T06:29:08.398Z,99828.00
2022-10-05T06:30:16.575Z,99819.16
2022-10-05T06:32:01.027Z,99826.53
2022-10-05T06:33:15.148Z,99822.94
2022-10-05T06:34:44.045Z,99825.38
2022-10-05T06:36:12.664Z,99826.00
2022-10-05T06:37:36.851Z,99840.25
2022-10-05T06:38:51.248Z,99827.72
2022-10-05T06:40:05.603Z,99834.94
2022-10-05T06:41:29.034Z,99842.22
2022-10-05T06:42:40.497Z,99832.34
2022-10-05T06:44:06.057Z,99833.22
2022-10-05T06:46:01.780Z,99832.94
2022-10-05T06:47:41.035Z,99840.91
2022-10-05T06:49:17.838Z,99832.03
2022-10-05T06:50:53.306Z,99828.00
2022-10-05T06:52:08.182Z,99828.56
2022-10-05T06:53:25.463Z,99837.13
2022-10-05T06:55:02.798Z,99826.25
2022-10-05T06:56:13.779Z,99833.34
2022-10-05T06:57:45.878Z,99831.28
2022-10-05T06:59:06.930Z,99837.03
2022-10-05T07:00:25.461Z,99831.38
2022-10-05T07:01:55.137Z,99832.03
2022-10-05T07:03:06.326Z,99838.41
2022-10-05T07:04:24.294Z,99831.56
2022-10-05T07:05:42.516Z,99831.81
2022-10-05T07:06:53.940Z,99847.94
2022-10-05T07:08:11.586Z,99845.34
2022-10-05T07:09:32.553Z,99844.97
2022-10-05T07:10:59.412Z,99833.78
2022-10-05T07:12:20.737Z,99842.81
2022-10-05T07:13:39.343Z,99836.31
2022-10-05T07:14:48.230Z,99834.94
2022-10-05T07:16:05.310Z,99840.03
2022-10-05T07:17:34.558Z,99840.19
2022-10-05T07:19:03.382Z,99839.03
2022-10-05T07:20:23.944Z,99839.56
2022-10-05T07:22:05.215Z,99838.56
2022-10-05T07:23:19.675Z,99842.19
2022-10-05T07:24:32.397Z,99841.19
2022-10-05T07:26:16.623Z,99843.03
2022-10-05T07:27:25.611Z,99831.78
2022-10-05T07:28:50.859Z,99841.69
2022-10-05T07:30:12.561Z,99855.47
2022-10-05T07:31:51.832Z,99841.81
2022-10-05T07:33:05.208Z,99846.41
2022-10-05T07:34:17.473Z,99835.53
2022-10-05T07:35:44.054Z,99837.34
2022-10-05T07:37:14.246Z,99833.97
2022-10-05T07:38:32.821Z,99837.63
2022-10-05T07:40:01.344Z,99830.28
2022-10-05T07:41:13.465Z,99832.75
2022-10-05T07:42:25.847Z,99828.28
2022-10-05T07:44:00.873Z,99828.19
2022-10-05T07:45:14.676Z,99827.59
2022-10-05T07:46:21.074Z,99827.84
2022-10-05T07:47:35.494Z,99828.25
2022-10-05T07:48:59.867Z,99834.69
2022-10-05T07:50:14.203Z,99837.31
2022-10-05T07:51:35.031Z,99843.63
2022-10-05T07:52:45.300Z,99842.69
2022-10-05T07:54:21.446Z,99847.72
2022-10-05T07:55:34.348Z,99837.56
2022-10-05T07:56:41.943Z,99846.19
2022-10-05T07:58:02.458Z,99843.63
2022-10-05T07:59:12.397Z,99843.72
2022-10-05T08:00:42.130Z,99846.28
2022-10-05T08:01:52.709Z,99838.03
2022-10-05T08:03:28.582Z,99831.94
2022-10-05T08:04:41.568Z,99839.34
2022-10-05T08:05:46.881Z,99840.81
2022-10-05T08:06:53.092Z,99850.25
2022-10-05T08:08:23.032Z,99842.31
2022-10-05T08:09:49.797Z,99841.84
2022-10-05T08:10:56.218Z,99840.09
2022-10-05T08:12:37.994Z,99848.38
2022-10-05T08:13:54.469Z,99838.50
2022-10-05T08:15:18.484Z,99845.28
2022-10-05T08:16:25.210Z,99832.28
2022-10-05T08:17:38.501Z,99837.59
2022-10-05T08:19:02.301Z,99832.72
2022-10-05T08:20:16.556Z,99839.38
2022-10-05T08:21:25.447Z,99840.16
2022-10-05T08:22:40.167Z,99849.38
2022-10-05T08:24:00.606Z,99847.84
2022-10-05T08:25:09.925Z,99844.78
2022-10-05T08:26:40.776Z,99844.75
2022-10-05T08:27:52.192Z,99840.94
2022-10-05T08:29:17.548Z,99837.69
2022-10-05T08:30:20.111Z,99843.78
2022-10-05T08:31:28.787Z,99842.63
2022-10-05T08:32:38.401Z,99844.00
2022-10-05T08:34:02.301Z,99842.88
2022-10-05T08:35:25.821Z,99841.50
2022-10-05T08:36:40.062Z,99845.28
2022-10-05T08:37:44.372Z,99836.94
2022-10-05T08:38:47.770Z,99841.44
2022-10-05T08:39:56.597Z,99845.03
2022-10-05T08:41:23.180Z,99846.75
2022-10-05T08:42:28.113Z,99843.97
2022-10-05T08:43:35.300Z,99837.97
2022-10-05T08:45:05.845Z,99832.41
2022-10-05T08:46:35.145Z,99837.34
2022-10-05T08:48:01.196Z,99840.44
2022-10-05T08:49:09.944Z,99836.19
2022-10-05T08:50:28.906Z,99837.72
2022-10-05T08:51:37.086Z,99840.84
2022-10-05T08:53:23.894Z,99851.66
2022-10-05T08:54:41.706Z,99839.75
2022-10-05T08:55:49.508Z,99827.94
2022-10-05T08:57:16.087Z,99848.38
2022-10-05T08:58:55.255Z,99850.31
2022-10-05T09:00:00.017Z,99844.78
2022-10-05T09:01:20.115Z,99845.84
2022-10-05T09:02:35.795Z,99840.50
2022-10-05T09:04:06.239Z,99844.38
2022-10-05T09:05:26.001Z,99840.75
2022-10-05T09:06:33.906Z,99844.72
2022-10-05T09:08:04.982Z,99848.75
2022-10-05T09:09:29.483Z,99843.25
2022-10-05T09:10:59.830Z,99835.63
2022-10-05T09:12:07.808Z,99833.06
2022-10-05T09:13:24.738Z,99836.97
2022-10-05T09:14:46.867Z,99834.13
2022-10-05T09:16:00.556Z,99825.94
2022-10-05T09:17:39.117Z,99830.34
2022-10-05T09:18:41.861Z,99830.13
2022-10-05T09:20:09.707Z,99833.66
2022-10-05T09:21:24.092Z,99831.81
2022-10-05T09:22:42.919Z,99823.66
2022-10-05T09:23:48.993Z,99829.75
2022-10-05T09:24:58.074Z,99831.75
2022-10-05T09:26:12.478Z,99831.78
2022-10-05T09:27:17.354Z,99829.50
2022-10-05T09:28:34.279Z,99833.69
2022-10-05T09:30:13.466Z,99835.66
2022-10-05T09:31:33.998Z,99832.22
2022-10-05T09:32:55.248Z,99832.88
2022-10-05T09:34:47.892Z,99818.72
2022-10-05T09:35:50.072Z,99819.72
2022-10-05T09:37:17.945Z,99817.38
2022-10-05T09:38:31.561Z,99816.97
2022-10-05T09:42:38.407Z,99816.63
2022-10-05T09:43:46.190Z,99806.94
2022-10-05T09:45:00.448Z,99816.84
2022-10-05T09:46:17.566Z,99821.72
2022-10-05T09:47:41.556Z,99810.63
2022-10-05T09:49:25.486Z,99810.63
2022-10-05T09:50:45.971Z,99812.75
2022-10-05T09:51:58.609Z,99813.72
2022-10-05T09:53:00.745Z,99813.00
2022-10-05T09:54:21.045Z,99810.88
2022-10-05T09:55:54.883Z,99809.06
2022-10-05T09:57:05.995Z,99810.03
2022-10-05T09:58:08.083Z,99808.25
2022-10-05T09:59:42.185Z,99798.47
2022-10-05T10:01:33.027Z,99803.16
2022-10-05T10:03:08.942Z,99802.75
2022-10-05T10:04:30.886Z,99792.94
2022-10-05T10:05:36.319Z,99799.59
2022-10-05T10:07:02.333Z,99798.00
2022-10-05T10:08:22.324Z,99800.41
2022-10-05T10:09:59.560Z,99799.84
2022-10-05T10:11:16.313Z,99794.78
2022-10-05T10:12:42.616Z,99796.38
2022-10-05T10:14:15.952Z,99787.56
2022-10-05T10:15:28.570Z,99782.88
2022-10-05T10:16:35.570Z,99783.94
2022-10-05T10:18:08.406Z,99794.16
2022-10-05T10:19:13.199Z,99785.81
2022-10-05T10:20:47.450Z,99790.00
2022-10-05T10:21:58.343Z,99786.25
2022-10-05T10:23:27.247Z,99776.47
2022-10-05T10:25:18.823Z,99787.59
2022-10-05T10:26:39.356Z,99788.59
2022-10-05T10:27:59.829Z,99774.41
2022-10-05T10:29:07.641Z,99770.97
2022-10-05T10:30:47.345Z,99772.72
2022-10-05T10:32:17.332Z,99768.31
2022-10-05T10:33:56.704Z,99767.59
2022-10-05T10:35:20.167Z,99770.97
2022-10-05T10:36:48.310Z,99772.91
2022-10-05T10:38:15.901Z,99773.94
2022-10-05T10:39:55.724Z,99771.03
2022-10-05T10:41:49.506Z,99779.63
2022-10-05T10:43:33.849Z,99776.66
2022-10-05T10:45:07.840Z,99775.97
2022-10-05T10:46:33.586Z,99774.28
2022-10-05T10:48:00.226Z,99773.66
2022-10-05T10:49:45.156Z,99773.00
2022-10-05T10:51:19.371Z,99779.53
2022-10-05T10:52:21.489Z,99773.13
2022-10-05T10:54:02.428Z,99769.06
2022-10-05T10:55:22.987Z,99774.06
2022-10-05T10:56:35.778Z,99771.09
2022-10-05T10:57:46.647Z,99766.03
2022-10-05T10:58:51.622Z,99766.53
2022-10-05T11:00:22.729Z,99766.50
2022-10-05T11:01:29.348Z,99775.13
2022-10-05T11:02:54.509Z,99769.31
2022-10-05T11:04:20.882Z,99774.63
2022-10-05T11:05:30.120Z,99754.19
2022-10-05T11:06:50.490Z,99763.22
2022-10-05T11:07:58.684Z,99763.75
2022-10-05T11:09:18.463Z,99768.44
2022-10-05T11:10:27.141Z,99757.53
2022-10-05T11:11:51.129Z,99766.34
2022-10-05T11:13:30.970Z,99759.19
2022-10-05T11:14:45.191Z,99765.41
2022-10-05T11:17:46.142Z,99762.97
2022-10-05T11:19:35.029Z,99769.69
2022-10-05T11:20:45.535Z,99759.47
2022-10-05T11:22:25.441Z,99758.25
2022-10-05T11:23:58.783Z,99758.97
2022-10-05T11:25:19.204Z,99761.22
2022-10-05T11:26:50.764Z,99753.72
2022-10-05T11:28:35.604Z,99753.34
2022-10-05T11:29:51.553Z,99753.94
2022-10-05T11:31:18.629Z,99754.13
2022-10-05T11:33:11.117Z,99745.94
2022-10-05T11:34:50.648Z,99746.78
2022-10-05T11:36:08.757Z,99742.56
2022-10-05T11:37:40.504Z,99734.00
2022-10-05T11:39:13.694Z,99747.78
2022-10-05T11:40:33.085Z,99748.41
2022-10-05T11:43:50.620Z,99751.63
2022-10-05T11:45:06.694Z,99735.53
2022-10-05T11:46:58.370Z,99732.69
2022-10-05T11:48:21.675Z,99726.53
2022-10-05T11:49:32.866Z,99737.06
2022-10-05T11:50:44.921Z,99721.94
2022-10-05T11:51:59.877Z,99724.94
2022-10-05T11:53:13.419Z,99718.75
2022-10-05T11:54:23.821Z,99729.22
2022-10-05T11:55:28.160Z,99729.97
2022-10-05T11:56:54.997Z,99721.78
2022-10-05T11:58:07.355Z,99713.22
2022-10-05T11:59:20.972Z,99714.19
2022-10-05T12:00:40.406Z,99709.97
2022-10-05T12:02:19.544Z,99718.38
2022-10-05T12:03:53.236Z,99717.81
2022-10-05T12:05:18.124Z,99714.81
2022-10-05T12:06:29.403Z,99716.75
2022-10-05T12:07:58.671Z,99707.03
2022-10-05T12:09:06.437Z,99710.50
2022-10-05T12:10:23.772Z,99711.19
2022-10-05T12:11:37.734Z,99702.97
2022-10-05T12:13:24.734Z,99709.53
2022-10-05T12:14:47.067Z,99704.84
2022-10-05T12:16:12.141Z,99698.00
2022-10-05T12:17:19.752Z,99706.66
2022-10-05T12:19:00.523Z,99705.66
2022-10-05T12:20:12.313Z,99710.91
2022-10-05T12:21:22.710Z,99699.44
2022-10-05T12:23:12.743Z,99701.75
2022-10-05T12:24:23.330Z,99706.06
2022-10-05T12:25:38.011Z,99709.44
2022-10-05T12:26:58.368Z,99700.25
2022-10-05T12:28:09.384Z,99696.22
2022-10-05T12:29:30.517Z,99699.94
2022-10-05T12:30:58.146Z,99694.81
2022-10-05T12:32:22.946Z,99698.81
2022-10-05T12:33:37.546Z,99695.31
2022-10-05T12:35:04.884Z,99689.75
2022-10-05T12:36:31.923Z,99692.03
2022-10-05T12:37:51.636Z,99691.28
2022-10-05T12:39:04.882Z,99697.06
2022-10-05T12:40:46.488Z,99683.16
2022-10-05T12:42:02.890Z,99685.34
2022-10-05T12:43:29.175Z,99691.91
2022-10-05T12:44:57.110Z,99682.31
2022-10-05T12:46:05.441Z,99685.69
2022-10-05T12:47:07.581Z,99684.72
2022-10-05T12:48:12.368Z,99685.19
2022-10-05T12:49:37.543Z,99685.31
2022-10-05T12:50:49.145Z,99682.56
2022-10-05T12:51:59.065Z,99672.84
2022-10-05T12:53:18.179Z,99679.13
2022-10-05T12:54:38.794Z,99669.03
2022-10-05T12:55:43.830Z,99675.25
2022-10-05T12:57:10.890Z,99676.50
2022-10-05T12:58:23.035Z,99671.66
2022-10-05T12:59:49.946Z,99674.66
2022-10-05T13:01:18.794Z,99669.72
2022-10-05T13:02:46.811Z,99671.16
2022-10-05T13:04:20.367Z,99666.72
2022-10-05T13:05:44.758Z,99670.63
2022-10-05T13:06:55.624Z,99660.75
2022-10-05T13:08:28.416Z,99667.84
2022-10-05T13:09:42.933Z,99667.16
2022-10-05T13:11:03.779Z,99673.50
2022-10-05T13:12:47.883Z,99668.94
2022-10-05T13:14:07.288Z,99658.84
2022-10-05T13:15:24.305Z,99664.19
2022-10-05T13:16:39.930Z,99665.66
2022-10-05T13:18:11.960Z,99648.56
2022-10-05T13:19:21.992Z,99660.41
2022-10-05T13:20:40.207Z,99652.69
2022-10-05T13:21:52.015Z,99663.06
2022-10-05T13:23:05.855Z,99656.41
2022-10-05T13:24:14.616Z,99663.03
2022-10-05T13:25:28.426Z,99661.13
2022-10-05T13:26:33.518Z,99660.25
2022-10-05T13:27:44.799Z,99655.72
2022-10-05T13:29:09.736Z,99654.47
2022-10-05T13:30:13.501Z,99656.41
2022-10-05T13:31:24.103Z,99647.47
2022-10-05T13:32:36.344Z,99641.22
2022-10-05T13:33:53.296Z,99660.56
2022-10-05T13:35:21.445Z,99647.88
2022-10-05T13:36:42.154Z,99646.81
2022-10-05T13:37:53.027Z,99659.28
2022-10-05T13:39:03.576Z,99650.63
2022-10-05T13:40:22.174Z,99653.66
2022-10-05T13:41:59.575Z,99646.84
2022-10-05T13:43:33.586Z,99652.50
2022-10-05T13:44:49.448Z,99650.25
2022-10-05T13:46:01.655Z,99643.63
2022-10-05T13:47:40.210Z,99651.53
2022-10-05T13:49:02.154Z,99651.22
2022-10-05T13:50:28.449Z,99645.50
2022-10-05T13:51:46.111Z,99637.91
2022-10-05T13:53:06.806Z,99653.34
2022-10-05T13:54:22.882Z,99654.19
2022-10-05T13:55:34.287Z,99653.53
2022-10-05T13:57:25.803Z,99652.19
2022-10-05T13:58:44.965Z,99650.06
2022-10-05T13:59:55.618Z,99646.41
2022-10-05T14:01:03.284Z,99641.00
2022-10-05T14:02:09.802Z,99642.81
2022-10-05T14:03:27.522Z,99636.53
2022-10-05T14:04:44.782Z,99645.44
2022-10-05T14:05:55.822Z,99635.13
2022-10-05T14:07:34.787Z,99632.59
2022-10-05T14:08:48.432Z,99636.59
2022-10-05T14:09:50.977Z,99635.59
2022-10-05T14:10:55.893Z,99630.50
2022-10-05T14:12:03.883Z,99633.75
2022-10-05T14:13:33.283Z,99639.09
2022-10-05T14:14:53.318Z,99639.78
2022-10-05T14:15:57.126Z,99645.56
2022-10-05T14:18:27.253Z,99634.72
2022-10-05T14:19:51.020Z,99636.25
2022-10-05T14:21:08.031Z,99629.09
2022-10-05T14:22:22.149Z,99640.63
2022-10-05T14:23:27.014Z,99645.56
2022-10-05T14:24:44.562Z,99635.94
2022-10-05T14:25:53.642Z,99639.50
2022-10-05T14:26:57.624Z,99639.41
2022-10-05T14:28:24.129Z,99630.38
2022-10-05T14:29:35.855Z,99632.72
2022-10-05T14:30:39.061Z,99626.25
2022-10-05T14:32:15.587Z,99626.38
2022-10-05T14:33:17.936Z,99622.16
2022-10-05T14:34:39.219Z,99633.34
2022-10-05T14:35:51.641Z,99622.56
2022-10-05T14:37:19.749Z,99630.03
2022-10-05T14:38:23.324Z,99623.28
2022-10-05T14:39:27.526Z,99633.72
2022-10-05T14:40:37.964Z,99628.09
2022-10-05T14:41:48.934Z,99626.66
2022-10-05T14:42:51.656Z,99617.59
2022-10-05T14:44:03.783Z,99625.13
2022-10-05T14:45:17.568Z,99623.72
2022-10-05T14:46:27.783Z,99621.63
2022-10-05T14:47:32.032Z,99612.88
2022-10-05T14:48:45.202Z,99612.94
2022-10-05T14:50:10.702Z,99616.97
2022-10-05T14:51:28.279Z,99620.50
2022-10-05T14:52:32.391Z,99624.31
2022-10-05T14:53:44.626Z,99611.50
2022-10-05T14:55:00.781Z,99612.47
2022-10-05T14:56:21.884Z,99610.47
2022-10-05T14:57:43.365Z,99619.91
2022-10-05T14:59:05.136Z,99619.09
2022-10-05T15:00:18.549Z,99619.75
2022-10-05T15:01:27.526Z,99625.72
2022-10-05T15:03:00.233Z,99613.19
2022-10-05T15:04:49.840Z,99614.97
2022-10-05T15:06:00.166Z,99622.13
2022-10-05T15:07:27.304Z,99609.88
2022-10-05T15:08:33.814Z,99619.91
2022-10-05T15:09:35.924Z,99608.88
2022-10-05T15:10:49.768Z,99612.53
2022-10-05T15:11:55.565Z,99608.72
2022-10-05T15:13:11.985Z,99609.84
2022-10-05T15:14:29.902Z,99603.84
2022-10-05T15:15:40.851Z,99612.72
2022-10-05T15:16:44.149Z,99615.53
2022-10-05T15:17:54.302Z,99617.63
2022-10-05T15:19:15.936Z,99613.22
2022-10-05T15:20:33.010Z,99614.78
2022-10-05T15:21:51.997Z,99608.44
2022-10-05T15:23:00.343Z,99617.00
2022-10-05T15:24:13.089Z,99614.22
2022-10-05T15:25:23.013Z,99618.19
2022-10-05T15:26:33.039Z,99605.81
2022-10-05T15:28:01.567Z,99608.19
2022-10-05T15:29:29.409Z,99613.72
2022-10-05T15:30:37.745Z,99613.47
2022-10-05T15:31:58.057Z,99613.53
2022-10-05T15:33:22.928Z,99608.94
2022-10-05T15:34:36.075Z,99609.44
2022-10-05T15:36:00.766Z,99603.75